sensor_id;sensor_type;location;lat;lon;timestamp;P1;durP1;ratioP1;P2;durP2;ratioP2
23617;SDS011;18207;32.078;34.818;2023-02-11T00:00:59;0.65;;;0.65;;
23617;SDS011;18207;32.078;34.818;2023-02-11T00:03:35;0.60;;;0.60;;
23617;SDS011;18207;32.078;34.818;2023-02-11T00:06:07;0.60;;;0.60;;
23617;SDS011;18207;32.078;34.818;2023-02-11T00:08:40;0.73;;;0.70;;
23617;SDS011;18207;32.078;34.818;2023-02-11T00:11:11;0.60;;;0.60;;
23617;SDS011;18207;32.078;34.818;2023-02-11T00:13:47;0.88;;;0.88;;
23617;SDS011;18207;32.078;34.818;2023-02-11T00:16:18;0.65;;;0.60;;
23617;SDS011;18207;32.078;34.818;2023-02-11T00:18:49;0.70;;;0.70;;
23617;SDS011;18207;32.078;34.818;2023-02-11T00:21:21;1.50;;;0.63;;
23617;SDS011;18207;32.078;34.818;2023-02-11T00:23:54;0.70;;;0.70;;
23617;SDS011;18207;32.078;34.818;2023-02-11T00:26:28;0.73;;;0.57;;
23617;SDS011;18207;32.078;34.818;2023-02-11T00:29:03;0.60;;;0.45;;
23617;SDS011;18207;32.078;34.818;2023-02-11T00:31:34;0.57;;;0.57;;
23617;SDS011;18207;32.078;34.818;2023-02-11T00:34:05;0.52;;;0.52;;
23617;SDS011;18207;32.078;34.818;2023-02-11T00:36:48;0.60;;;0.50;;
23617;SDS011;18207;32.078;34.818;2023-02-11T00:39:24;0.50;;;0.50;;
23617;SDS011;18207;32.078;34.818;2023-02-11T00:41:55;0.60;;;0.60;;
23617;SDS011;18207;32.078;34.818;2023-02-11T00:44:27;1.40;;;0.65;;
23617;SDS011;18207;32.078;34.818;2023-02-11T00:46:58;0.63;;;0.63;;
23617;SDS011;18207;32.078;34.818;2023-02-11T00:49:28;0.57;;;0.57;;
23617;SDS011;18207;32.078;34.818;2023-02-11T00:51:59;1.38;;;0.50;;
23617;SDS011;18207;32.078;34.818;2023-02-11T00:54:29;1.08;;;0.70;;
23617;SDS011;18207;32.078;34.818;2023-02-11T00:57:00;0.88;;;0.73;;
23617;SDS011;18207;32.078;34.818;2023-02-11T00:59:32;0.70;;;0.70;;
23617;SDS011;18207;32.078;34.818;2023-02-11T01:02:03;0.40;;;0.38;;
23617;SDS011;18207;32.078;34.818;2023-02-11T01:04:33;0.75;;;0.75;;
23617;SDS011;18207;32.078;34.818;2023-02-11T01:07:04;0.75;;;0.75;;
23617;SDS011;18207;32.078;34.818;2023-02-11T01:09:36;0.50;;;0.50;;
23617;SDS011;18207;32.078;34.818;2023-02-11T01:12:06;1.33;;;0.70;;
23617;SDS011;18207;32.078;34.818;2023-02-11T01:14:39;0.63;;;0.60;;
23617;SDS011;18207;32.078;34.818;2023-02-11T01:17:10;0.60;;;0.55;;
23617;SDS011;18207;32.078;34.818;2023-02-11T01:19:41;0.93;;;0.85;;
23617;SDS011;18207;32.078;34.818;2023-02-11T01:22:11;0.47;;;0.47;;
23617;SDS011;18207;32.078;34.818;2023-02-11T01:24:42;0.55;;;0.55;;
23617;SDS011;18207;32.078;34.818;2023-02-11T01:27:13;0.70;;;0.55;;
23617;SDS011;18207;32.078;34.818;2023-02-11T01:29:45;1.48;;;0.60;;
23617;SDS011;18207;32.078;34.818;2023-02-11T01:32:16;0.55;;;0.55;;
23617;SDS011;18207;32.078;34.818;2023-02-11T01:34:47;0.95;;;0.63;;
23617;SDS011;18207;32.078;34.818;2023-02-11T01:37:17;0.55;;;0.50;;
23617;SDS011;18207;32.078;34.818;2023-02-11T01:39:47;0.40;;;0.40;;
23617;SDS011;18207;32.078;34.818;2023-02-11T01:42:19;0.40;;;0.40;;
23617;SDS011;18207;32.078;34.818;2023-02-11T01:44:55;0.43;;;0.43;;
23617;SDS011;18207;32.078;34.818;2023-02-11T01:47:28;0.82;;;0.70;;
23617;SDS011;18207;32.078;34.818;2023-02-11T01:49:59;0.95;;;0.50;;
23617;SDS011;18207;32.078;34.818;2023-02-11T01:52:32;0.52;;;0.50;;
23617;SDS011;18207;32.078;34.818;2023-02-11T01:55:08;1.23;;;0.55;;
23617;SDS011;18207;32.078;34.818;2023-02-11T01:57:59;0.50;;;0.50;;
23617;SDS011;18207;32.078;34.818;2023-02-11T02:00:36;0.95;;;0.47;;
23617;SDS011;18207;32.078;34.818;2023-02-11T02:03:09;0.50;;;0.50;;
23617;SDS011;18207;32.078;34.818;2023-02-11T02:05:46;0.80;;;0.50;;
23617;SDS011;18207;32.078;34.818;2023-02-11T02:08:27;0.50;;;0.50;;
23617;SDS011;18207;32.078;34.818;2023-02-11T02:11:07;0.35;;;0.35;;
23617;SDS011;18207;32.078;34.818;2023-02-11T02:13:37;0.65;;;0.50;;
23617;SDS011;18207;32.078;34.818;2023-02-11T02:16:13;0.63;;;0.52;;
23617;SDS011;18207;32.078;34.818;2023-02-11T02:18:50;0.52;;;0.50;;
23617;SDS011;18207;32.078;34.818;2023-02-11T02:21:38;0.75;;;0.50;;
23617;SDS011;18207;32.078;34.818;2023-02-11T02:24:57;0.65;;;0.50;;
23617;SDS011;18207;32.078;34.818;2023-02-11T02:27:48;0.38;;;0.38;;
23617;SDS011;18207;32.078;34.818;2023-02-11T02:30:37;0.40;;;0.40;;
23617;SDS011;18207;32.078;34.818;2023-02-11T02:33:56;1.92;;;0.60;;
23617;SDS011;18207;32.078;34.818;2023-02-11T02:36:36;0.82;;;0.50;;
23617;SDS011;18207;32.078;34.818;2023-02-11T02:39:20;1.42;;;0.50;;
23617;SDS011;18207;32.078;34.818;2023-02-11T02:41:57;1.67;;;0.52;;
23617;SDS011;18207;32.078;34.818;2023-02-11T02:44:28;0.43;;;0.43;;
23617;SDS011;18207;32.078;34.818;2023-02-11T02:47:00;1.23;;;0.60;;
23617;SDS011;18207;32.078;34.818;2023-02-11T02:49:32;0.50;;;0.50;;
23617;SDS011;18207;32.078;34.818;2023-02-11T02:52:06;0.60;;;0.50;;
23617;SDS011;18207;32.078;34.818;2023-02-11T02:55:08;0.40;;;0.40;;
23617;SDS011;18207;32.078;34.818;2023-02-11T02:58:16;0.52;;;0.52;;
23617;SDS011;18207;32.078;34.818;2023-02-11T03:01:20;1.20;;;0.60;;
23617;SDS011;18207;32.078;34.818;2023-02-11T03:04:10;0.73;;;0.30;;
23617;SDS011;18207;32.078;34.818;2023-02-11T03:06:54;0.88;;;0.52;;
23617;SDS011;18207;32.078;34.818;2023-02-11T03:09:37;0.40;;;0.40;;
23617;SDS011;18207;32.078;34.818;2023-02-11T03:12:17;0.40;;;0.40;;
23617;SDS011;18207;32.078;34.818;2023-02-11T03:14:51;0.50;;;0.30;;
23617;SDS011;18207;32.078;34.818;2023-02-11T03:17:21;0.50;;;0.50;;
23617;SDS011;18207;32.078;34.818;2023-02-11T03:19:56;0.40;;;0.40;;
23617;SDS011;18207;32.078;34.818;2023-02-11T03:22:33;0.60;;;0.57;;
23617;SDS011;18207;32.078;34.818;2023-02-11T03:25:09;0.32;;;0.32;;
23617;SDS011;18207;32.078;34.818;2023-02-11T03:27:42;0.30;;;0.30;;
23617;SDS011;18207;32.078;34.818;2023-02-11T03:30:24;0.50;;;0.50;;
23617;SDS011;18207;32.078;34.818;2023-02-11T03:33:04;0.40;;;0.40;;
23617;SDS011;18207;32.078;34.818;2023-02-11T03:35:42;0.40;;;0.40;;
23617;SDS011;18207;32.078;34.818;2023-02-11T03:38:24;0.50;;;0.50;;
23617;SDS011;18207;32.078;34.818;2023-02-11T03:41:01;1.20;;;0.45;;
23617;SDS011;18207;32.078;34.818;2023-02-11T03:43:36;0.70;;;0.60;;
23617;SDS011;18207;32.078;34.818;2023-02-11T03:46:13;0.30;;;0.30;;
23617;SDS011;18207;32.078;34.818;2023-02-11T03:48:51;0.63;;;0.50;;
23617;SDS011;18207;32.078;34.818;2023-02-11T03:51:31;1.20;;;0.60;;
23617;SDS011;18207;32.078;34.818;2023-02-11T03:54:08;0.47;;;0.47;;
23617;SDS011;18207;32.078;34.818;2023-02-11T03:56:45;0.70;;;0.50;;
23617;SDS011;18207;32.078;34.818;2023-02-11T03:59:23;0.52;;;0.50;;
23617;SDS011;18207;32.078;34.818;2023-02-11T04:01:53;0.77;;;0.47;;
23617;SDS011;18207;32.078;34.818;2023-02-11T04:04:25;0.80;;;0.50;;
23617;SDS011;18207;32.078;34.818;2023-02-11T04:06:56;0.50;;;0.50;;
23617;SDS011;18207;32.078;34.818;2023-02-11T04:09:34;0.80;;;0.40;;
23617;SDS011;18207;32.078;34.818;2023-02-11T04:12:05;0.63;;;0.40;;
23617;SDS011;18207;32.078;34.818;2023-02-11T04:14:36;0.40;;;0.40;;
23617;SDS011;18207;32.078;34.818;2023-02-11T04:17:07;0.20;;;0.20;;
23617;SDS011;18207;32.078;34.818;2023-02-11T04:19:37;0.50;;;0.43;;
23617;SDS011;18207;32.078;34.818;2023-02-11T04:22:08;0.85;;;0.40;;
23617;SDS011;18207;32.078;34.818;2023-02-11T04:24:42;0.68;;;0.60;;
23617;SDS011;18207;32.078;34.818;2023-02-11T04:27:13;0.40;;;0.40;;
23617;SDS011;18207;32.078;34.818;2023-02-11T04:29:43;0.45;;;0.35;;
23617;SDS011;18207;32.078;34.818;2023-02-11T04:32:14;1.92;;;0.50;;
23617;SDS011;18207;32.078;34.818;2023-02-11T04:34:45;0.30;;;0.30;;
23617;SDS011;18207;32.078;34.818;2023-02-11T04:37:15;0.20;;;0.20;;
23617;SDS011;18207;32.078;34.818;2023-02-11T04:39:47;0.68;;;0.40;;
23617;SDS011;18207;32.078;34.818;2023-02-11T04:42:18;1.08;;;0.60;;
23617;SDS011;18207;32.078;34.818;2023-02-11T04:44:48;0.68;;;0.68;;
23617;SDS011;18207;32.078;34.818;2023-02-11T04:47:18;1.08;;;0.47;;
23617;SDS011;18207;32.078;34.818;2023-02-11T04:49:48;0.98;;;0.43;;
23617;SDS011;18207;32.078;34.818;2023-02-11T04:52:19;1.13;;;0.50;;
23617;SDS011;18207;32.078;34.818;2023-02-11T04:54:53;0.50;;;0.43;;
23617;SDS011;18207;32.078;34.818;2023-02-11T04:57:23;0.60;;;0.60;;
23617;SDS011;18207;32.078;34.818;2023-02-11T04:59:55;0.43;;;0.43;;
23617;SDS011;18207;32.078;34.818;2023-02-11T05:02:25;0.85;;;0.30;;
23617;SDS011;18207;32.078;34.818;2023-02-11T05:04:56;0.73;;;0.57;;
23617;SDS011;18207;32.078;34.818;2023-02-11T05:07:27;0.77;;;0.45;;
23617;SDS011;18207;32.078;34.818;2023-02-11T05:09:59;0.20;;;0.20;;
23617;SDS011;18207;32.078;34.818;2023-02-11T05:12:30;2.42;;;0.63;;
23617;SDS011;18207;32.078;34.818;2023-02-11T05:15:00;0.40;;;0.40;;
23617;SDS011;18207;32.078;34.818;2023-02-11T05:17:30;0.35;;;0.32;;
23617;SDS011;18207;32.078;34.818;2023-02-11T05:20:01;0.50;;;0.50;;
23617;SDS011;18207;32.078;34.818;2023-02-11T05:22:33;1.08;;;0.43;;
23617;SDS011;18207;32.078;34.818;2023-02-11T05:25:07;1.30;;;0.47;;
23617;SDS011;18207;32.078;34.818;2023-02-11T05:27:38;0.38;;;0.38;;
23617;SDS011;18207;32.078;34.818;2023-02-11T05:30:09;0.60;;;0.40;;
23617;SDS011;18207;32.078;34.818;2023-02-11T05:32:40;0.55;;;0.47;;
23617;SDS011;18207;32.078;34.818;2023-02-11T05:35:10;0.75;;;0.50;;
23617;SDS011;18207;32.078;34.818;2023-02-11T05:37:41;0.47;;;0.47;;
23617;SDS011;18207;32.078;34.818;2023-02-11T05:40:14;0.30;;;0.25;;
23617;SDS011;18207;32.078;34.818;2023-02-11T05:42:45;0.73;;;0.50;;
23617;SDS011;18207;32.078;34.818;2023-02-11T05:45:16;0.60;;;0.30;;
23617;SDS011;18207;32.078;34.818;2023-02-11T05:47:46;0.35;;;0.35;;
23617;SDS011;18207;32.078;34.818;2023-02-11T05:50:17;0.77;;;0.35;;
23617;SDS011;18207;32.078;34.818;2023-02-11T05:52:48;0.65;;;0.60;;
23617;SDS011;18207;32.078;34.818;2023-02-11T05:55:21;0.40;;;0.40;;
23617;SDS011;18207;32.078;34.818;2023-02-11T05:57:52;0.40;;;0.40;;
23617;SDS011;18207;32.078;34.818;2023-02-11T06:00:22;1.73;;;0.40;;
23617;SDS011;18207;32.078;34.818;2023-02-11T06:02:54;0.35;;;0.35;;
23617;SDS011;18207;32.078;34.818;2023-02-11T06:05:24;0.35;;;0.35;;
23617;SDS011;18207;32.078;34.818;2023-02-11T06:07:55;0.50;;;0.50;;
23617;SDS011;18207;32.078;34.818;2023-02-11T06:10:28;0.95;;;0.60;;
23617;SDS011;18207;32.078;34.818;2023-02-11T06:13:00;0.40;;;0.35;;
23617;SDS011;18207;32.078;34.818;2023-02-11T06:15:30;0.70;;;0.43;;
23617;SDS011;18207;32.078;34.818;2023-02-11T06:18:01;0.63;;;0.60;;
23617;SDS011;18207;32.078;34.818;2023-02-11T06:20:32;0.40;;;0.40;;
23617;SDS011;18207;32.078;34.818;2023-02-11T06:23:03;0.68;;;0.68;;
23617;SDS011;18207;32.078;34.818;2023-02-11T06:25:35;0.82;;;0.55;;
23617;SDS011;18207;32.078;34.818;2023-02-11T06:28:07;0.40;;;0.40;;
23617;SDS011;18207;32.078;34.818;2023-02-11T06:30:38;1.35;;;0.80;;
23617;SDS011;18207;32.078;34.818;2023-02-11T06:33:11;0.90;;;0.55;;
23617;SDS011;18207;32.078;34.818;2023-02-11T06:35:41;1.05;;;0.80;;
23617;SDS011;18207;32.078;34.818;2023-02-11T06:38:11;0.98;;;0.55;;
23617;SDS011;18207;32.078;34.818;2023-02-11T06:40:47;0.40;;;0.40;;
23617;SDS011;18207;32.078;34.818;2023-02-11T06:43:18;0.63;;;0.52;;
23617;SDS011;18207;32.078;34.818;2023-02-11T06:45:51;0.70;;;0.70;;
23617;SDS011;18207;32.078;34.818;2023-02-11T06:48:22;1.17;;;0.50;;
23617;SDS011;18207;32.078;34.818;2023-02-11T06:50:52;0.50;;;0.50;;
23617;SDS011;18207;32.078;34.818;2023-02-11T06:53:22;0.60;;;0.60;;
23617;SDS011;18207;32.078;34.818;2023-02-11T06:55:55;1.00;;;0.63;;
23617;SDS011;18207;32.078;34.818;2023-02-11T06:58:31;0.80;;;0.80;;
23617;SDS011;18207;32.078;34.818;2023-02-11T07:01:03;0.70;;;0.70;;
23617;SDS011;18207;32.078;34.818;2023-02-11T07:03:36;1.27;;;0.75;;
23617;SDS011;18207;32.078;34.818;2023-02-11T07:06:10;0.60;;;0.60;;
23617;SDS011;18207;32.078;34.818;2023-02-11T07:08:46;0.60;;;0.40;;
23617;SDS011;18207;32.078;34.818;2023-02-11T07:11:20;0.63;;;0.60;;
23617;SDS011;18207;32.078;34.818;2023-02-11T07:13:54;0.70;;;0.70;;
23617;SDS011;18207;32.078;34.818;2023-02-11T07:16:29;0.57;;;0.57;;
23617;SDS011;18207;32.078;34.818;2023-02-11T07:19:01;1.17;;;0.60;;
23617;SDS011;18207;32.078;34.818;2023-02-11T07:21:31;0.70;;;0.68;;
23617;SDS011;18207;32.078;34.818;2023-02-11T07:24:04;0.68;;;0.65;;
23617;SDS011;18207;32.078;34.818;2023-02-11T07:26:38;0.70;;;0.70;;
23617;SDS011;18207;32.078;34.818;2023-02-11T07:29:10;0.75;;;0.52;;
23617;SDS011;18207;32.078;34.818;2023-02-11T07:31:40;0.60;;;0.60;;
23617;SDS011;18207;32.078;34.818;2023-02-11T07:34:10;1.48;;;0.80;;
23617;SDS011;18207;32.078;34.818;2023-02-11T07:36:41;0.85;;;0.60;;
23617;SDS011;18207;32.078;34.818;2023-02-11T07:39:12;1.23;;;0.60;;
23617;SDS011;18207;32.078;34.818;2023-02-11T07:41:44;1.48;;;0.70;;
23617;SDS011;18207;32.078;34.818;2023-02-11T07:44:15;1.65;;;0.63;;
23617;SDS011;18207;32.078;34.818;2023-02-11T07:46:45;0.80;;;0.80;;
23617;SDS011;18207;32.078;34.818;2023-02-11T07:49:16;1.20;;;1.10;;
23617;SDS011;18207;32.078;34.818;2023-02-11T07:51:47;0.90;;;0.85;;
23617;SDS011;18207;32.078;34.818;2023-02-11T07:54:17;0.80;;;0.80;;
23617;SDS011;18207;32.078;34.818;2023-02-11T07:56:49;2.05;;;0.65;;
23617;SDS011;18207;32.078;34.818;2023-02-11T07:59:20;1.05;;;0.88;;
23617;SDS011;18207;32.078;34.818;2023-02-11T08:01:51;1.20;;;0.73;;
23617;SDS011;18207;32.078;34.818;2023-02-11T08:04:21;1.30;;;0.95;;
23617;SDS011;18207;32.078;34.818;2023-02-11T08:06:52;1.48;;;1.30;;
23617;SDS011;18207;32.078;34.818;2023-02-11T08:09:24;1.30;;;1.20;;
23617;SDS011;18207;32.078;34.818;2023-02-11T08:11:57;1.83;;;1.10;;
23617;SDS011;18207;32.078;34.818;2023-02-11T08:14:28;1.60;;;1.00;;
23617;SDS011;18207;32.078;34.818;2023-02-11T08:16:59;1.67;;;1.00;;
23617;SDS011;18207;32.078;34.818;2023-02-11T08:19:29;0.95;;;0.77;;
23617;SDS011;18207;32.078;34.818;2023-02-11T08:22:00;1.00;;;0.90;;
23617;SDS011;18207;32.078;34.818;2023-02-11T08:24:32;1.42;;;0.90;;
23617;SDS011;18207;32.078;34.818;2023-02-11T08:27:04;1.40;;;1.00;;
23617;SDS011;18207;32.078;34.818;2023-02-11T08:29:35;1.08;;;0.90;;
23617;SDS011;18207;32.078;34.818;2023-02-11T08:32:05;2.00;;;0.90;;
23617;SDS011;18207;32.078;34.818;2023-02-11T08:34:36;2.53;;;1.05;;
23617;SDS011;18207;32.078;34.818;2023-02-11T08:37:05;1.98;;;0.90;;
23617;SDS011;18207;32.078;34.818;2023-02-11T08:39:36;1.20;;;0.88;;
23617;SDS011;18207;32.078;34.818;2023-02-11T08:42:09;2.75;;;1.00;;
23617;SDS011;18207;32.078;34.818;2023-02-11T08:44:41;2.08;;;1.00;;
23617;SDS011;18207;32.078;34.818;2023-02-11T08:47:12;1.40;;;0.90;;
23617;SDS011;18207;32.078;34.818;2023-02-11T08:49:43;1.05;;;0.90;;
23617;SDS011;18207;32.078;34.818;2023-02-11T08:52:14;0.68;;;0.68;;
23617;SDS011;18207;32.078;34.818;2023-02-11T08:54:45;0.63;;;0.63;;
23617;SDS011;18207;32.078;34.818;2023-02-11T08:57:17;0.82;;;0.80;;
23617;SDS011;18207;32.078;34.818;2023-02-11T08:59:48;2.70;;;0.93;;
23617;SDS011;18207;32.078;34.818;2023-02-11T09:02:20;0.65;;;0.50;;
23617;SDS011;18207;32.078;34.818;2023-02-11T09:04:51;2.47;;;0.90;;
23617;SDS011;18207;32.078;34.818;2023-02-11T09:07:21;1.23;;;0.80;;
23617;SDS011;18207;32.078;34.818;2023-02-11T09:09:52;1.48;;;0.90;;
23617;SDS011;18207;32.078;34.818;2023-02-11T09:12:24;1.95;;;0.80;;
23617;SDS011;18207;32.078;34.818;2023-02-11T09:14:56;1.08;;;0.80;;
23617;SDS011;18207;32.078;34.818;2023-02-11T09:17:26;3.40;;;0.77;;
23617;SDS011;18207;32.078;34.818;2023-02-11T09:19:57;1.10;;;1.00;;
23617;SDS011;18207;32.078;34.818;2023-02-11T09:22:30;2.70;;;1.08;;
23617;SDS011;18207;32.078;34.818;2023-02-11T09:25:01;1.92;;;1.10;;
23617;SDS011;18207;32.078;34.818;2023-02-11T09:27:32;0.85;;;0.73;;
23617;SDS011;18207;32.078;34.818;2023-02-11T09:30:03;0.88;;;0.80;;
23617;SDS011;18207;32.078;34.818;2023-02-11T09:32:36;1.75;;;1.00;;
23617;SDS011;18207;32.078;34.818;2023-02-11T09:35:07;1.50;;;0.85;;
23617;SDS011;18207;32.078;34.818;2023-02-11T09:37:38;1.42;;;0.98;;
23617;SDS011;18207;32.078;34.818;2023-02-11T09:40:09;1.67;;;0.98;;
23617;SDS011;18207;32.078;34.818;2023-02-11T09:42:46;1.05;;;0.68;;
23617;SDS011;18207;32.078;34.818;2023-02-11T09:45:27;0.65;;;0.65;;
23617;SDS011;18207;32.078;34.818;2023-02-11T09:48:00;0.75;;;0.63;;
23617;SDS011;18207;32.078;34.818;2023-02-11T09:50:39;1.65;;;0.70;;
23617;SDS011;18207;32.078;34.818;2023-02-11T09:53:19;1.45;;;1.08;;
23617;SDS011;18207;32.078;34.818;2023-02-11T09:55:54;2.08;;;0.85;;
23617;SDS011;18207;32.078;34.818;2023-02-11T09:58:31;0.80;;;0.80;;
23617;SDS011;18207;32.078;34.818;2023-02-11T10:01:06;2.28;;;0.80;;
23617;SDS011;18207;32.078;34.818;2023-02-11T10:03:58;0.63;;;0.60;;
23617;SDS011;18207;32.078;34.818;2023-02-11T10:06:37;2.47;;;0.90;;
23617;SDS011;18207;32.078;34.818;2023-02-11T10:09:19;0.73;;;0.60;;
23617;SDS011;18207;32.078;34.818;2023-02-11T10:12:17;1.63;;;1.00;;
23617;SDS011;18207;32.078;34.818;2023-02-11T10:18:16;2.60;;;0.73;;
23617;SDS011;18207;32.078;34.818;2023-02-11T10:21:12;0.50;;;0.50;;
23617;SDS011;18207;32.078;34.818;2023-02-11T10:24:09;1.55;;;0.80;;
23617;SDS011;18207;32.078;34.818;2023-02-11T10:26:42;1.52;;;0.95;;
23617;SDS011;18207;32.078;34.818;2023-02-11T10:29:17;0.70;;;0.70;;
23617;SDS011;18207;32.078;34.818;2023-02-11T10:32:05;1.10;;;0.90;;
23617;SDS011;18207;32.078;34.818;2023-02-11T10:34:55;1.75;;;0.88;;
23617;SDS011;18207;32.078;34.818;2023-02-11T10:37:31;1.48;;;0.90;;
23617;SDS011;18207;32.078;34.818;2023-02-11T10:40:02;1.50;;;1.08;;
23617;SDS011;18207;32.078;34.818;2023-02-11T10:42:40;0.88;;;0.77;;
23617;SDS011;18207;32.078;34.818;2023-02-11T10:45:15;0.70;;;0.70;;
23617;SDS011;18207;32.078;34.818;2023-02-11T10:47:58;1.65;;;0.93;;
23617;SDS011;18207;32.078;34.818;2023-02-11T10:50:33;1.90;;;0.90;;
23617;SDS011;18207;32.078;34.818;2023-02-11T10:55:52;0.80;;;0.80;;
23617;SDS011;18207;32.078;34.818;2023-02-11T10:58:27;0.80;;;0.70;;
23617;SDS011;18207;32.078;34.818;2023-02-11T11:01:03;2.05;;;0.98;;
23617;SDS011;18207;32.078;34.818;2023-02-11T11:03:51;1.38;;;0.95;;
23617;SDS011;18207;32.078;34.818;2023-02-11T11:06:29;1.55;;;1.27;;
23617;SDS011;18207;32.078;34.818;2023-02-11T11:09:02;2.25;;;0.90;;
23617;SDS011;18207;32.078;34.818;2023-02-11T11:11:34;0.90;;;0.82;;
23617;SDS011;18207;32.078;34.818;2023-02-11T11:14:21;0.73;;;0.68;;
23617;SDS011;18207;32.078;34.818;2023-02-11T11:16:55;2.20;;;1.17;;
23617;SDS011;18207;32.078;34.818;2023-02-11T11:19:27;2.00;;;1.15;;
23617;SDS011;18207;32.078;34.818;2023-02-11T11:21:59;1.73;;;1.10;;
23617;SDS011;18207;32.078;34.818;2023-02-11T11:24:31;1.58;;;1.15;;
23617;SDS011;18207;32.078;34.818;2023-02-11T11:27:14;1.35;;;1.00;;
23617;SDS011;18207;32.078;34.818;2023-02-11T11:29:49;2.03;;;1.10;;
23617;SDS011;18207;32.078;34.818;2023-02-11T11:32:24;1.42;;;1.00;;
23617;SDS011;18207;32.078;34.818;2023-02-11T11:35:02;1.38;;;1.13;;
23617;SDS011;18207;32.078;34.818;2023-02-11T11:37:51;1.42;;;1.13;;
23617;SDS011;18207;32.078;34.818;2023-02-11T11:40:28;1.13;;;1.05;;
23617;SDS011;18207;32.078;34.818;2023-02-11T11:43:14;1.27;;;0.95;;
23617;SDS011;18207;32.078;34.818;2023-02-11T11:45:52;3.90;;;1.10;;
23617;SDS011;18207;32.078;34.818;2023-02-11T11:48:24;1.30;;;0.90;;
23617;SDS011;18207;32.078;34.818;2023-02-11T11:51:01;2.03;;;1.13;;
23617;SDS011;18207;32.078;34.818;2023-02-11T11:53:38;0.93;;;0.82;;
23617;SDS011;18207;32.078;34.818;2023-02-11T11:56:17;1.52;;;0.95;;
23617;SDS011;18207;32.078;34.818;2023-02-11T11:58:51;0.80;;;0.80;;
23617;SDS011;18207;32.078;34.818;2023-02-11T12:01:26;1.95;;;0.88;;
23617;SDS011;18207;32.078;34.818;2023-02-11T12:04:13;1.48;;;1.00;;
23617;SDS011;18207;32.078;34.818;2023-02-11T12:07:20;0.90;;;0.70;;
23617;SDS011;18207;32.078;34.818;2023-02-11T12:10:15;2.08;;;1.10;;
23617;SDS011;18207;32.078;34.818;2023-02-11T12:13:15;2.35;;;0.85;;
23617;SDS011;18207;32.078;34.818;2023-02-11T12:16:01;1.27;;;0.80;;
23617;SDS011;18207;32.078;34.818;2023-02-11T12:18:47;1.08;;;1.00;;
23617;SDS011;18207;32.078;34.818;2023-02-11T12:22:18;1.10;;;1.00;;
23617;SDS011;18207;32.078;34.818;2023-02-11T12:25:16;0.80;;;0.70;;
23617;SDS011;18207;32.078;34.818;2023-02-11T12:27:56;1.70;;;1.00;;
23617;SDS011;18207;32.078;34.818;2023-02-11T12:30:48;2.05;;;0.70;;
23617;SDS011;18207;32.078;34.818;2023-02-11T12:33:50;0.80;;;0.80;;
23617;SDS011;18207;32.078;34.818;2023-02-11T12:36:58;2.00;;;0.80;;
23617;SDS011;18207;32.078;34.818;2023-02-11T12:39:50;1.38;;;1.00;;
23617;SDS011;18207;32.078;34.818;2023-02-11T12:42:41;1.08;;;0.80;;
23617;SDS011;18207;32.078;34.818;2023-02-11T12:45:53;1.45;;;0.63;;
23617;SDS011;18207;32.078;34.818;2023-02-11T12:49:05;1.02;;;0.90;;
23617;SDS011;18207;32.078;34.818;2023-02-11T12:52:03;2.08;;;0.80;;
23617;SDS011;18207;32.078;34.818;2023-02-11T12:54:54;2.25;;;0.93;;
23617;SDS011;18207;32.078;34.818;2023-02-11T12:57:30;1.85;;;0.88;;
23617;SDS011;18207;32.078;34.818;2023-02-11T13:00:11;2.13;;;0.77;;
23617;SDS011;18207;32.078;34.818;2023-02-11T13:02:49;2.00;;;0.80;;
23617;SDS011;18207;32.078;34.818;2023-02-11T13:05:29;1.15;;;0.80;;
23617;SDS011;18207;32.078;34.818;2023-02-11T13:08:08;1.27;;;0.77;;
23617;SDS011;18207;32.078;34.818;2023-02-11T13:10:46;0.93;;;0.82;;
23617;SDS011;18207;32.078;34.818;2023-02-11T13:13:24;0.98;;;0.90;;
23617;SDS011;18207;32.078;34.818;2023-02-11T13:16:03;0.93;;;0.80;;
23617;SDS011;18207;32.078;34.818;2023-02-11T13:18:44;1.40;;;0.77;;
23617;SDS011;18207;32.078;34.818;2023-02-11T13:21:27;1.65;;;0.90;;
23617;SDS011;18207;32.078;34.818;2023-02-11T13:24:24;1.88;;;0.70;;
23617;SDS011;18207;32.078;34.818;2023-02-11T13:27:10;1.17;;;1.00;;
23617;SDS011;18207;32.078;34.818;2023-02-11T13:33:03;1.10;;;0.90;;
23617;SDS011;18207;32.078;34.818;2023-02-11T13:36:08;0.75;;;0.75;;
23617;SDS011;18207;32.078;34.818;2023-02-11T13:38:51;1.80;;;1.10;;
23617;SDS011;18207;32.078;34.818;2023-02-11T13:41:33;2.25;;;1.00;;
23617;SDS011;18207;32.078;34.818;2023-02-11T13:47:04;1.80;;;0.93;;
23617;SDS011;18207;32.078;34.818;2023-02-11T13:49:36;1.10;;;0.90;;
23617;SDS011;18207;32.078;34.818;2023-02-11T13:52:17;2.22;;;0.85;;
23617;SDS011;18207;32.078;34.818;2023-02-11T13:54:54;0.80;;;0.80;;
23617;SDS011;18207;32.078;34.818;2023-02-11T13:57:33;1.73;;;0.90;;
23617;SDS011;18207;32.078;34.818;2023-02-11T14:03:22;1.90;;;0.88;;
23617;SDS011;18207;32.078;34.818;2023-02-11T14:06:20;1.70;;;1.00;;
23617;SDS011;18207;32.078;34.818;2023-02-11T14:12:22;1.58;;;0.90;;
23617;SDS011;18207;32.078;34.818;2023-02-11T14:15:14;0.88;;;0.75;;
23617;SDS011;18207;32.078;34.818;2023-02-11T14:17:58;1.23;;;0.80;;
23617;SDS011;18207;32.078;34.818;2023-02-11T14:20:31;1.30;;;0.68;;
23617;SDS011;18207;32.078;34.818;2023-02-11T14:23:20;0.98;;;0.85;;
23617;SDS011;18207;32.078;34.818;2023-02-11T14:25:59;1.27;;;0.93;;
23617;SDS011;18207;32.078;34.818;2023-02-11T14:28:58;0.93;;;0.75;;
23617;SDS011;18207;32.078;34.818;2023-02-11T14:31:41;1.08;;;0.70;;
23617;SDS011;18207;32.078;34.818;2023-02-11T14:34:39;3.00;;;0.98;;
23617;SDS011;18207;32.078;34.818;2023-02-11T14:37:31;1.45;;;0.88;;
23617;SDS011;18207;32.078;34.818;2023-02-11T14:40:18;1.55;;;0.90;;
23617;SDS011;18207;32.078;34.818;2023-02-11T14:43:00;1.33;;;1.00;;
23617;SDS011;18207;32.078;34.818;2023-02-11T14:45:47;1.30;;;0.90;;
23617;SDS011;18207;32.078;34.818;2023-02-11T14:48:24;1.15;;;1.00;;
23617;SDS011;18207;32.078;34.818;2023-02-11T14:51:12;1.98;;;0.82;;
23617;SDS011;18207;32.078;34.818;2023-02-11T14:53:49;1.13;;;0.80;;
23617;SDS011;18207;32.078;34.818;2023-02-11T14:56:24;1.25;;;1.00;;
23617;SDS011;18207;32.078;34.818;2023-02-11T14:59:01;1.00;;;1.00;;
23617;SDS011;18207;32.078;34.818;2023-02-11T15:01:32;1.80;;;0.90;;
23617;SDS011;18207;32.078;34.818;2023-02-11T15:04:20;0.95;;;0.73;;
23617;SDS011;18207;32.078;34.818;2023-02-11T15:06:58;1.38;;;1.10;;
23617;SDS011;18207;32.078;34.818;2023-02-11T15:09:38;0.85;;;0.85;;
23617;SDS011;18207;32.078;34.818;2023-02-11T15:12:14;2.30;;;1.00;;
23617;SDS011;18207;32.078;34.818;2023-02-11T15:14:50;1.40;;;1.02;;
23617;SDS011;18207;32.078;34.818;2023-02-11T15:17:25;0.85;;;0.85;;
23617;SDS011;18207;32.078;34.818;2023-02-11T15:20:00;0.90;;;0.90;;
23617;SDS011;18207;32.078;34.818;2023-02-11T15:22:33;0.82;;;0.75;;
23617;SDS011;18207;32.078;34.818;2023-02-11T15:25:08;1.17;;;1.02;;
23617;SDS011;18207;32.078;34.818;2023-02-11T15:27:42;0.82;;;0.82;;
23617;SDS011;18207;32.078;34.818;2023-02-11T15:30:28;0.60;;;0.60;;
23617;SDS011;18207;32.078;34.818;2023-02-11T15:33:02;1.95;;;0.88;;
23617;SDS011;18207;32.078;34.818;2023-02-11T15:35:36;1.17;;;0.98;;
23617;SDS011;18207;32.078;34.818;2023-02-11T15:38:10;1.08;;;0.98;;
23617;SDS011;18207;32.078;34.818;2023-02-11T15:40:49;0.90;;;0.90;;
23617;SDS011;18207;32.078;34.818;2023-02-11T15:43:23;1.80;;;1.20;;
23617;SDS011;18207;32.078;34.818;2023-02-11T15:46:09;1.15;;;0.63;;
23617;SDS011;18207;32.078;34.818;2023-02-11T15:48:45;1.23;;;1.00;;